Time;durP1;ratioP1;P1;durP2;ratioP2;P2;SDS_P1;SDS_P2;PMS_P1;PMS_P2;Temp;Humidity;BMP_temperature;BMP_pressure;BME280_temperature;BME280_humidity;BME280_pressure;Samples;Min_cycle;Max_cycle;Signal;HPM_P1;HPM_P2
2022/07/14 00:00:13;;;;;;;0.70;0.70;;;23.50;99.90;;;;;;4959243;28;20480;-62
2022/07/14 00:02:45;;;;;;;0.50;0.50;;;23.60;99.90;;;;;;4967265;28;20984;-62
2022/07/14 00:05:12;;;;;;;0.50;0.50;;;23.70;99.90;;;;;;4956396;28;20528;-62
2022/07/14 00:07:39;;;;;;;0.40;0.40;;;23.70;99.90;;;;;;4962798;28;20587;-62
2022/07/14 00:10:06;;;;;;;0.40;0.40;;;23.70;99.90;;;;;;4957283;28;20441;-62
2022/07/14 00:12:33;;;;;;;0.50;0.50;;;23.70;99.90;;;;;;4960643;28;20533;-61
2022/07/14 00:15:00;;;;;;;0.38;0.38;;;23.70;99.90;;;;;;4959435;28;20430;-62
2022/07/14 00:17:27;;;;;;;0.35;0.35;;;23.70;99.90;;;;;;4956875;28;20444;-62
2022/07/14 00:19:54;;;;;;;0.70;0.50;;;23.70;99.90;;;;;;4960282;28;20431;-62
2022/07/14 00:22:20;;;;;;;0.47;0.47;;;23.70;99.90;;;;;;4957919;28;20428;-62
2022/07/14 00:24:54;;;;;;;0.45;0.45;;;23.60;99.90;;;;;;4962993;28;20795;-62
2022/07/14 00:27:21;;;;;;;0.60;0.60;;;23.50;99.90;;;;;;4952725;28;20911;-62
2022/07/14 00:29:51;;;;;;;0.40;0.40;;;23.40;99.90;;;;;;4953627;28;20506;-62
2022/07/14 00:32:18;;;;;;;0.32;0.32;;;23.30;99.90;;;;;;4962538;28;20472;-62
2022/07/14 00:34:45;;;;;;;0.40;0.40;;;23.30;99.90;;;;;;4963487;28;20439;-62
2022/07/14 00:37:12;;;;;;;0.40;0.40;;;23.30;99.90;;;;;;4959856;28;20924;-62
2022/07/14 00:42:39;;;;;;;0.40;0.40;;;23.20;99.90;;;;;;4963892;28;20508;-62
2022/07/14 00:45:14;;;;;;;0.63;0.50;;;23.10;99.90;;;;;;4959796;28;20432;-62
2022/07/14 00:47:46;;;;;;;0.40;0.40;;;23.00;99.90;;;;;;4962060;28;20843;-62
2022/07/14 00:50:15;;;;;;;0.40;0.40;;;22.90;99.90;;;;;;4957972;28;20957;-62
2022/07/14 00:52:44;;;;;;;0.50;0.50;;;22.90;99.90;;;;;;4959317;28;20444;-62
2022/07/14 00:55:15;;;;;;;0.50;0.50;;;22.80;99.90;;;;;;4962620;28;20444;-61
2022/07/14 00:57:53;;;;;;;0.50;0.50;;;22.80;99.90;;;;;;4958920;28;20443;-61
2022/07/14 01:00:19;;;;;;;0.40;0.40;;;22.80;99.90;;;;;;4953368;28;20448;-61
2022/07/14 01:02:49;;;;;;;0.60;0.47;;;22.80;99.90;;;;;;4959003;28;20822;-62
2022/07/14 01:05:17;;;;;;;0.40;0.40;;;22.70;99.90;;;;;;4964498;28;20462;-62
2022/07/14 01:07:43;;;;;;;0.40;0.40;;;22.60;99.90;;;;;;4957569;28;20434;-62
2022/07/14 01:10:11;;;;;;;0.32;0.32;;;22.40;99.90;;;;;;4957887;28;20530;-61
2022/07/14 01:12:39;;;;;;;0.50;0.50;;;22.30;99.90;;;;;;4953738;28;20981;-61
2022/07/14 01:15:09;;;;;;;0.33;0.33;;;22.20;99.90;;;;;;4948005;28;21036;-62
2022/07/14 01:17:35;;;;;;;0.45;0.45;;;22.00;99.90;;;;;;4955363;28;20439;-61
2022/07/14 01:20:04;;;;;;;0.50;0.50;;;21.80;99.90;;;;;;4960502;28;20427;-62
2022/07/14 01:22:33;;;;;;;0.40;0.40;;;21.60;99.90;;;;;;4955591;28;20432;-61
2022/07/14 01:24:59;;;;;;;0.35;0.35;;;21.40;99.90;;;;;;4953193;28;20445;-61
2022/07/14 01:27:26;;;;;;;0.40;0.40;;;21.30;99.90;;;;;;4963564;28;20468;-62
2022/07/14 01:29:53;;;;;;;0.60;0.47;;;21.20;99.90;;;;;;4955093;28;20820;-62
2022/07/14 01:32:20;;;;;;;0.43;0.43;;;21.10;99.90;;;;;;4959794;28;20535;-61
2022/07/14 01:34:47;;;;;;;0.40;0.40;;;21.00;99.90;;;;;;4956042;28;20433;-61
2022/07/14 01:37:14;;;;;;;0.40;0.40;;;20.90;99.90;;;;;;4959443;28;20434;-61
2022/07/14 01:39:44;;;;;;;0.40;0.40;;;20.80;99.90;;;;;;4959553;28;20452;-61
2022/07/14 01:42:13;;;;;;;0.30;0.30;;;20.70;99.90;;;;;;4963585;28;20523;-61
2022/07/14 01:44:40;;;;;;;0.30;0.30;;;20.50;99.90;;;;;;4957938;28;20446;-61
2022/07/14 01:47:10;;;;;;;0.32;0.32;;;20.40;99.90;;;;;;4959348;28;20462;-61
2022/07/14 01:49:37;;;;;;;0.70;0.50;;;20.20;99.90;;;;;;4955270;28;20857;-61
2022/07/14 01:52:05;;;;;;;0.43;0.43;;;20.10;99.90;;;;;;4959393;28;20522;-61
2022/07/14 01:54:32;;;;;;;0.40;0.40;;;19.90;99.90;;;;;;4956137;28;20524;-60
2022/07/14 01:56:59;;;;;;;0.30;0.30;;;19.80;99.90;;;;;;4953456;28;20517;-61
2022/07/14 01:59:26;;;;;;;0.50;0.50;;;19.60;99.90;;;;;;4952681;28;20499;-61
2022/07/14 02:01:53;;;;;;;0.40;0.40;;;19.50;99.90;;;;;;4952225;28;20441;-61
2022/07/14 02:04:22;;;;;;;0.50;0.50;;;19.40;99.90;;;;;;4957166;28;20537;-61
2022/07/14 02:06:54;;;;;;;0.57;0.57;;;19.30;99.90;;;;;;4953026;28;20440;-61
2022/07/14 02:12:10;;;;;;;0.52;0.52;;;19.10;99.90;;;;;;4957800;28;20780;-61
2022/07/14 02:12:10;;;;;;;0.30;0.30;;;18.90;99.90;;;;;;4962264;28;20446;-61
2022/07/14 02:14:37;;;;;;;0.47;0.47;;;18.80;99.90;;;;;;4965965;28;20489;-61
2022/07/14 02:17:04;;;;;;;1.10;0.40;;;18.70;99.90;;;;;;4952563;28;20950;-61
2022/07/14 02:19:31;;;;;;;0.50;0.50;;;18.60;99.90;;;;;;4959921;28;20450;-62
2022/07/14 02:21:58;;;;;;;0.47;0.47;;;18.60;99.90;;;;;;4960593;28;20520;-62
2022/07/14 02:24:25;;;;;;;0.85;0.40;;;18.60;99.90;;;;;;4962713;28;20432;-62
2022/07/14 02:26:52;;;;;;;0.38;0.38;;;18.60;99.90;;;;;;4962746;28;20442;-62
2022/07/14 02:29:20;;;;;;;0.47;0.47;;;18.70;99.90;;;;;;4966781;28;21024;-61
2022/07/14 02:31:50;;;;;;;0.47;0.47;;;18.60;99.90;;;;;;4956578;28;20475;-62
2022/07/14 02:34:17;;;;;;;0.50;0.50;;;18.60;99.90;;;;;;4957298;28;22134;-61
2022/07/14 02:36:44;;;;;;;0.60;0.40;;;18.40;99.90;;;;;;4956008;28;20818;-62
2022/07/14 02:39:18;;;;;;;0.52;0.52;;;18.30;99.90;;;;;;4962855;28;20432;-62
2022/07/14 02:41:45;;;;;;;0.63;0.63;;;18.30;99.90;;;;;;4954929;28;20938;-62
2022/07/14 02:44:12;;;;;;;0.32;0.32;;;18.20;99.90;;;;;;4963507;28;20438;-62
2022/07/14 02:46:39;;;;;;;0.47;0.47;;;18.10;99.90;;;;;;4959824;28;20448;-62
2022/07/14 02:49:06;;;;;;;0.40;0.40;;;18.10;99.90;;;;;;4961794;28;20497;-62
2022/07/14 02:51:33;;;;;;;0.50;0.50;;;18.10;99.90;;;;;;4960668;28;20468;-61
2022/07/14 02:54:00;;;;;;;0.68;0.47;;;18.10;99.90;;;;;;4956274;28;20442;-62
2022/07/14 02:56:27;;;;;;;0.40;0.40;;;18.00;99.90;;;;;;4961702;28;20443;-61
2022/07/14 02:58:54;;;;;;;0.57;0.57;;;18.00;99.90;;;;;;4956400;28;20925;-61
2022/07/14 03:01:21;;;;;;;0.30;0.30;;;18.00;99.90;;;;;;4961320;28;20602;-61
2022/07/14 03:03:48;;;;;;;0.50;0.50;;;17.90;99.90;;;;;;4954412;28;20450;-61
2022/07/14 03:06:19;;;;;;;0.50;0.50;;;17.80;99.90;;;;;;4956393;28;20934;-61
2022/07/14 03:08:46;;;;;;;0.40;0.40;;;17.70;99.90;;;;;;4961890;28;20451;-61
2022/07/14 03:11:13;;;;;;;0.45;0.45;;;17.70;99.90;;;;;;4964278;28;20484;-61
2022/07/14 03:13:40;;;;;;;0.50;0.50;;;17.60;99.90;;;;;;4960254;28;20525;-61
2022/07/14 03:16:09;;;;;;;0.30;0.30;;;17.60;99.90;;;;;;4958634;28;20867;-61
2022/07/14 03:18:37;;;;;;;0.50;0.50;;;17.50;99.90;;;;;;4961282;28;20446;-61
2022/07/14 03:21:14;;;;;;;0.45;0.40;;;17.50;99.90;;;;;;4964936;28;20440;-61
2022/07/14 03:23:41;;;;;;;0.40;0.40;;;17.40;99.90;;;;;;4966642;28;20436;-61
2022/07/14 03:26:07;;;;;;;0.50;0.50;;;17.50;99.90;;;;;;4964682;28;20431;-62
2022/07/14 03:28:34;;;;;;;0.50;0.50;;;17.50;99.90;;;;;;4954550;28;20534;-61
2022/07/14 03:31:02;;;;;;;0.45;0.45;;;17.50;99.90;;;;;;4967226;28;20469;-61
2022/07/14 03:33:30;;;;;;;0.50;0.50;;;17.50;99.90;;;;;;4964202;28;20462;-61
2022/07/14 03:35:56;;;;;;;0.40;0.40;;;17.60;99.90;;;;;;4957912;28;20452;-61
2022/07/14 03:38:23;;;;;;;0.70;0.70;;;17.60;99.90;;;;;;4965072;28;20440;-61
2022/07/14 03:41:06;;;;;;;0.40;0.40;;;17.60;99.90;;;;;;4956884;28;20447;-62
2022/07/14 03:43:34;;;;;;;0.40;0.40;;;17.50;99.90;;;;;;4967311;28;20439;-61
2022/07/14 03:46:02;;;;;;;0.50;0.50;;;17.60;99.90;;;;;;4965498;28;20438;-61
2022/07/14 03:48:29;;;;;;;0.43;0.43;;;17.60;99.90;;;;;;4965150;28;20801;-61
2022/07/14 03:50:56;;;;;;;0.57;0.55;;;17.70;99.90;;;;;;4960334;28;20436;-62
2022/07/14 03:53:23;;;;;;;0.50;0.50;;;17.70;99.90;;;;;;4964025;28;20877;-61
2022/07/14 03:55:50;;;;;;;0.50;0.50;;;17.70;99.90;;;;;;4965281;28;20436;-61
2022/07/14 03:58:19;;;;;;;0.80;0.80;;;17.80;99.90;;;;;;4965403;28;20958;-61
2022/07/14 04:00:47;;;;;;;0.50;0.50;;;17.90;99.90;;;;;;4961533;28;20446;-62
2022/07/14 04:03:16;;;;;;;0.43;0.43;;;18.00;99.90;;;;;;4981535;28;20535;-61
2022/07/14 04:05:43;;;;;;;0.40;0.40;;;18.10;99.90;;;;;;4964509;28;20451;-61
2022/07/14 04:08:10;;;;;;;0.70;0.50;;;18.30;99.90;;;;;;4965583;28;20436;-61
2022/07/14 04:10:40;;;;;;;0.40;0.40;;;18.40;99.90;;;;;;4962733;28;20483;-61
2022/07/14 04:13:06;;;;;;;0.50;0.50;;;18.40;99.90;;;;;;4956487;28;20447;-61
2022/07/14 04:15:33;;;;;;;0.70;0.70;;;18.50;99.90;;;;;;4959316;28;20438;-60
2022/07/14 04:18:00;;;;;;;0.50;0.50;;;18.50;99.90;;;;;;4964714;28;20444;-61
2022/07/14 04:20:27;;;;;;;0.40;0.40;;;18.60;99.90;;;;;;4962459;28;20434;-61
2022/07/14 04:22:54;;;;;;;0.60;0.60;;;18.60;99.90;;;;;;4956392;28;20436;-61
2022/07/14 04:25:21;;;;;;;0.50;0.50;;;18.60;99.90;;;;;;4957721;28;20432;-61
2022/07/14 04:27:48;;;;;;;1.50;0.45;;;18.60;99.90;;;;;;4962211;28;20818;-61
2022/07/14 04:30:15;;;;;;;0.67;0.67;;;18.70;99.90;;;;;;4959181;28;20481;-61
2022/07/14 04:32:41;;;;;;;0.47;0.47;;;18.80;99.90;;;;;;4959659;28;20470;-62
2022/07/14 04:35:09;;;;;;;0.30;0.30;;;18.90;99.90;;;;;;4963940;28;20432;-61
2022/07/14 04:37:36;;;;;;;0.50;0.50;;;19.00;99.90;;;;;;4964925;28;20539;-61
2022/07/14 04:40:06;;;;;;;0.50;0.50;;;19.10;99.90;;;;;;4971254;28;21023;-61
2022/07/14 04:42:33;;;;;;;0.30;0.30;;;19.20;99.90;;;;;;4964495;28;20428;-62
2022/07/14 04:45:00;;;;;;;0.40;0.40;;;19.30;99.90;;;;;;4950834;28;20432;-62
2022/07/14 04:47:27;;;;;;;0.50;0.40;;;19.40;99.90;;;;;;4958957;28;20445;-61
2022/07/14 04:52:49;;;;;;;0.50;0.50;;;19.60;99.90;;;;;;4946015;28;20446;-61
2022/07/14 04:55:16;;;;;;;0.50;0.50;;;19.50;99.90;;;;;;4947791;28;20445;-61
2022/07/14 04:57:43;;;;;;;0.50;0.50;;;19.50;99.90;;;;;;4948025;28;20472;-61
2022/07/14 05:00:14;;;;;;;0.40;0.40;;;19.50;99.90;;;;;;4951231;28;20865;-62
2022/07/14 05:02:41;;;;;;;0.30;0.30;;;19.50;99.90;;;;;;4947199;28;20510;-61
2022/07/14 05:05:08;;;;;;;0.50;0.50;;;19.60;99.90;;;;;;4942629;28;20447;-61
2022/07/14 05:07:35;;;;;;;0.40;0.40;;;19.70;99.90;;;;;;4946465;28;21004;-62
2022/07/14 05:10:03;;;;;;;0.40;0.40;;;19.80;99.90;;;;;;4947023;28;20442;-62
2022/07/14 05:12:30;;;;;;;0.50;0.50;;;19.90;99.90;;;;;;4948472;28;20441;-62
2022/07/14 05:15:00;;;;;;;0.30;0.30;;;20.10;99.90;;;;;;4946202;28;20455;-62
2022/07/14 05:17:26;;;;;;;0.50;0.50;;;20.20;99.90;;;;;;4965258;28;20481;-61
2022/07/14 05:19:54;;;;;;;0.47;0.47;;;20.40;99.90;;;;;;4952297;28;20772;-61
2022/07/14 05:22:24;;;;;;;0.60;0.60;;;20.50;99.90;;;;;;4949161;28;20540;-62
2022/07/14 05:24:51;;;;;;;0.50;0.50;;;20.50;99.90;;;;;;4953525;28;20450;-62
2022/07/14 05:27:18;;;;;;;0.50;0.50;;;20.70;99.90;;;;;;4952792;28;20436;-62
2022/07/14 05:29:45;;;;;;;0.40;0.40;;;20.80;99.90;;;;;;4946742;28;21269;-62
2022/07/14 05:32:12;;;;;;;0.47;0.47;;;21.00;99.90;;;;;;4946337;28;20436;-61
2022/07/14 05:34:44;;;;;;;0.50;0.50;;;21.10;99.90;;;;;;4940268;28;20974;-63
2022/07/14 05:37:12;;;;;;;0.55;0.55;;;21.20;99.90;;;;;;4950360;28;20442;-62
2022/07/14 05:39:38;;;;;;;0.40;0.40;;;21.30;99.90;;;;;;4949291;28;20441;-62
2022/07/14 05:42:05;;;;;;;0.47;0.47;;;21.50;99.90;;;;;;4943455;28;20441;-62
2022/07/14 05:44:34;;;;;;;1.10;0.50;;;21.80;99.90;;;;;;4969075;28;20424;-62
2022/07/14 05:47:01;;;;;;;0.32;0.32;;;22.10;99.90;;;;;;4948667;28;20443;-62
2022/07/14 05:49:28;;;;;;;0.50;0.50;;;22.30;99.90;;;;;;4955126;28;20440;-62
2022/07/14 05:51:54;;;;;;;0.70;0.50;;;22.60;99.90;;;;;;4947011;28;20440;-61
2022/07/14 05:54:21;;;;;;;0.38;0.30;;;22.90;99.90;;;;;;4952174;28;20467;-62
2022/07/14 05:56:51;;;;;;;0.38;0.38;;;23.30;99.90;;;;;;4952115;28;20939;-62
2022/07/14 05:59:18;;;;;;;0.30;0.30;;;23.70;99.90;;;;;;4948980;28;20491;-61
2022/07/14 06:02:06;;;;;;;0.40;0.40;;;24.80;99.90;;;;;;4947821;28;21102;-61
2022/07/14 06:04:33;;;;;;;0.40;0.40;;;25.00;99.90;;;;;;4948161;28;20493;-59
2022/07/14 06:07:00;;;;;;;0.50;0.50;;;24.70;99.90;;;;;;4946531;28;21145;-59
2022/07/14 06:09:27;;;;;;;0.40;0.30;;;24.50;99.90;;;;;;4953247;28;20444;-62
2022/07/14 06:11:54;;;;;;;0.40;0.40;;;24.30;99.90;;;;;;4948984;28;20444;-60
2022/07/14 06:14:21;;;;;;;0.35;0.35;;;24.20;99.90;;;;;;4943366;28;20451;-60
2022/07/14 06:16:47;;;;;;;0.40;0.40;;;24.10;99.90;;;;;;4954217;28;20516;-60
2022/07/14 06:19:14;;;;;;;0.50;0.50;;;24.20;99.90;;;;;;4952396;28;20467;-59
2022/07/14 06:21:43;;;;;;;0.47;0.47;;;24.30;99.90;;;;;;4950303;28;21100;-60
2022/07/14 06:24:12;;;;;;;0.43;0.43;;;24.20;99.90;;;;;;4948571;28;20845;-60
2022/07/14 06:26:39;;;;;;;0.70;0.40;;;24.40;99.90;;;;;;4948593;28;20447;-59
2022/07/14 06:29:07;;;;;;;0.30;0.30;;;24.30;99.90;;;;;;4958768;28;20531;-60
2022/07/14 06:31:35;;;;;;;0.50;0.50;;;24.20;99.90;;;;;;4952234;28;20538;-60
2022/07/14 06:34:03;;;;;;;0.47;0.47;;;24.30;99.90;;;;;;4955536;28;20442;-60
2022/07/14 06:36:31;;;;;;;0.50;0.50;;;24.40;99.90;;;;;;4953805;28;20466;-58
2022/07/14 06:38:58;;;;;;;0.40;0.40;;;24.70;99.90;;;;;;4965662;28;20457;-60
2022/07/14 06:41:25;;;;;;;0.50;0.50;;;25.50;99.90;;;;;;4954505;28;20437;-61
2022/07/14 06:43:51;;;;;;;0.57;0.57;;;26.30;99.90;;;;;;4955948;28;20552;-59
2022/07/14 06:46:18;;;;;;;0.40;0.40;;;27.50;99.90;;;;;;4954721;28;20921;-61
2022/07/14 06:48:45;;;;;;;0.50;0.50;;;28.40;99.90;;;;;;4952434;28;20531;-60
2022/07/14 06:51:12;;;;;;;0.60;0.60;;;29.80;99.90;;;;;;4960277;28;20442;-61
2022/07/14 06:53:39;;;;;;;0.50;0.50;;;30.90;98.10;;;;;;4954698;28;20431;-60
2022/07/14 06:56:07;;;;;;;0.50;0.50;;;30.80;97.50;;;;;;4953884;28;20448;-61
2022/07/14 06:58:33;;;;;;;0.40;0.40;;;30.40;98.00;;;;;;4954843;28;20436;-61
2022/07/14 07:01:01;;;;;;;0.40;0.40;;;29.90;97.40;;;;;;4954501;28;20446;-60
2022/07/14 07:03:28;;;;;;;0.47;0.47;;;29.70;97.20;;;;;;4955452;28;20435;-60
2022/07/14 07:08:44;;;;;;;0.60;0.60;;;29.20;98.00;;;;;;4956020;28;20473;-61
2022/07/14 07:11:11;;;;;;;0.40;0.40;;;28.80;97.80;;;;;;4948304;28;20421;-60
2022/07/14 07:13:38;;;;;;;0.55;0.55;;;28.30;98.00;;;;;;4955437;28;20445;-60
2022/07/14 07:16:07;;;;;;;0.60;0.60;;;27.80;98.50;;;;;;4956984;28;20806;-61
2022/07/14 07:18:35;;;;;;;0.50;0.50;;;27.60;98.90;;;;;;4950790;28;21070;-61
2022/07/14 07:21:03;;;;;;;0.60;0.60;;;27.50;98.90;;;;;;4955706;28;20434;-60
2022/07/14 07:23:30;;;;;;;0.40;0.40;;;27.20;99.30;;;;;;4963191;28;20444;-61
2022/07/14 07:25:57;;;;;;;0.50;0.50;;;26.70;99.90;;;;;;4987906;28;20529;-61
2022/07/14 07:28:24;;;;;;;0.90;0.60;;;26.60;99.90;;;;;;4965624;28;20877;-62
2022/07/14 07:30:53;;;;;;;1.10;0.57;;;26.70;99.90;;;;;;4954515;28;20430;-60
2022/07/14 07:33:20;;;;;;;0.70;0.70;;;26.90;99.90;;;;;;4964167;28;20468;-62
2022/07/14 07:35:47;;;;;;;0.55;0.55;;;26.90;99.90;;;;;;4961567;28;20466;-61
2022/07/14 07:38:14;;;;;;;0.45;0.45;;;27.00;99.90;;;;;;4956275;28;20434;-61
2022/07/14 07:40:41;;;;;;;0.47;0.47;;;27.10;99.90;;;;;;4964719;28;20450;-61
2022/07/14 07:43:07;;;;;;;0.50;0.50;;;27.20;99.90;;;;;;4958157;28;20426;-62
2022/07/14 07:45:34;;;;;;;0.47;0.47;;;27.30;99.40;;;;;;4962495;28;20489;-62
2022/07/14 07:48:03;;;;;;;0.43;0.43;;;27.40;99.40;;;;;;4966962;28;20922;-61
2022/07/14 07:50:33;;;;;;;0.80;0.40;;;27.40;99.40;;;;;;4964812;28;20440;-61
2022/07/14 07:53:00;;;;;;;0.40;0.40;;;27.80;99.00;;;;;;4958266;28;21242;-61
2022/07/14 07:55:27;;;;;;;0.60;0.60;;;27.50;98.90;;;;;;4958089;28;20444;-61
2022/07/14 07:57:54;;;;;;;0.43;0.43;;;27.80;98.80;;;;;;4963651;28;20448;-61
2022/07/14 08:00:21;;;;;;;0.50;0.50;;;28.40;99.30;;;;;;4961352;28;20434;-61
2022/07/14 08:02:52;;;;;;;0.50;0.50;;;29.10;98.50;;;;;;4959923;28;20505;-62
2022/07/14 08:05:23;;;;;;;0.50;0.50;;;29.90;98.10;;;;;;4954848;28;20442;-62
2022/07/14 08:08:10;;;;;;;1.50;0.70;;;29.90;96.50;;;;;;4963644;28;21235;-60
2022/07/14 08:10:40;;;;;;;0.40;0.40;;;29.80;96.50;;;;;;4962402;28;20453;-62
2022/07/14 08:13:08;;;;;;;0.43;0.43;;;29.40;97.00;;;;;;4965305;28;20436;-62
2022/07/14 08:15:36;;;;;;;0.52;0.52;;;29.50;96.60;;;;;;4958026;28;20439;-63
2022/07/14 08:18:03;;;;;;;0.40;0.40;;;29.30;96.40;;;;;;4961131;28;20442;-62
2022/07/14 08:20:30;;;;;;;0.40;0.40;;;29.00;96.70;;;;;;4954293;28;20451;-62
2022/07/14 08:22:58;;;;;;;0.52;0.52;;;29.00;96.70;;;;;;4974312;28;20464;-62
2022/07/14 08:25:25;;;;;;;0.45;0.45;;;29.00;97.00;;;;;;4960507;28;20436;-61
2022/07/14 08:27:52;;;;;;;0.50;0.50;;;29.20;96.40;;;;;;4958073;28;20795;-61
2022/07/14 08:30:20;;;;;;;0.30;0.30;;;29.20;95.70;;;;;;4963682;28;20480;-61
2022/07/14 08:32:49;;;;;;;0.30;0.30;;;29.30;96.20;;;;;;4957014;28;20440;-62
2022/07/14 08:35:19;;;;;;;0.40;0.40;;;29.50;95.90;;;;;;4948310;28;20511;-61
2022/07/14 08:37:46;;;;;;;0.40;0.40;;;29.00;96.10;;;;;;4958873;28;20812;-62
2022/07/14 08:40:20;;;;;;;0.50;0.50;;;29.00;96.10;;;;;;4962705;28;21761;-62
2022/07/14 08:42:49;;;;;;;0.43;0.43;;;28.80;96.30;;;;;;4962937;28;20446;-61
2022/07/14 08:45:19;;;;;;;0.43;0.43;;;28.50;96.60;;;;;;4981781;28;20468;-62
2022/07/14 08:47:46;;;;;;;0.45;0.45;;;28.70;96.60;;;;;;4965782;28;20527;-62
2022/07/14 08:50:18;;;;;;;0.50;0.50;;;29.20;96.30;;;;;;4958927;28;20538;-62
2022/07/14 08:52:49;;;;;;;0.40;0.40;;;29.30;96.10;;;;;;4959645;28;20439;-62
2022/07/14 08:55:18;;;;;;;0.98;0.65;;;30.40;95.70;;;;;;4962082;28;20440;-62
2022/07/14 08:57:46;;;;;;;0.52;0.52;;;30.50;94.90;;;;;;4961358;28;20522;-63
2022/07/14 09:00:15;;;;;;;0.50;0.50;;;30.40;95.20;;;;;;4964656;28;20471;-63
2022/07/14 09:02:50;;;;;;;0.50;0.50;;;30.40;95.20;;;;;;4957164;28;20446;-62
2022/07/14 09:05:41;;;;;;;0.40;0.40;;;30.90;95.90;;;;;;4959617;28;20784;-62
2022/07/14 09:08:07;;;;;;;0.50;0.50;;;32.30;94.80;;;;;;4949525;28;20463;-63
2022/07/14 09:10:34;;;;;;;0.40;0.40;;;32.80;93.30;;;;;;4950884;28;21194;-63
2022/07/14 09:13:22;;;;;;;0.50;0.50;;;32.70;93.50;;;;;;4950413;28;20439;-63
2022/07/14 09:16:09;;;;;;;0.40;0.40;;;32.70;93.30;;;;;;4958067;28;20440;-63
2022/07/14 09:18:36;;;;;;;0.50;0.50;;;32.60;93.00;;;;;;4960904;28;20443;-62
2022/07/14 09:21:20;;;;;;;0.60;0.60;;;32.30;92.70;;;;;;4962478;28;20942;-63
2022/07/14 09:23:47;;;;;;;0.40;0.40;;;31.70;92.80;;;;;;4962503;28;20444;-62
2022/07/14 09:26:15;;;;;;;0.50;0.50;;;31.20;93.30;;;;;;4950828;28;20441;-62
2022/07/14 09:28:44;;;;;;;0.50;0.50;;;30.80;93.70;;;;;;4952747;28;21199;-61
2022/07/14 09:31:23;;;;;;;0.60;0.60;;;30.60;94.00;;;;;;4957250;28;21249;-62
2022/07/14 09:34:05;;;;;;;0.60;0.60;;;30.40;94.30;;;;;;4954491;28;20803;-63
2022/07/14 09:36:36;;;;;;;0.40;0.40;;;30.30;94.50;;;;;;4969588;28;20811;-62
2022/07/14 09:39:14;;;;;;;0.60;0.60;;;30.30;94.10;;;;;;4965560;28;20436;-62
2022/07/14 09:41:52;;;;;;;0.60;0.60;;;29.90;94.30;;;;;;4960675;28;20464;-62
2022/07/14 09:44:20;;;;;;;0.55;0.55;;;29.90;94.60;;;;;;4963703;28;20444;-62
2022/07/14 09:46:48;;;;;;;0.50;0.50;;;30.40;94.70;;;;;;4969526;28;20812;-62
2022/07/14 09:49:17;;;;;;;0.68;0.68;;;30.70;94.40;;;;;;4960168;28;20440;-62
2022/07/14 09:52:01;;;;;;;0.60;0.60;;;30.80;94.50;;;;;;4955881;28;21023;-62
2022/07/14 09:54:51;;;;;;;0.60;0.60;;;30.80;94.80;;;;;;4951308;28;20436;-62
2022/07/14 09:57:22;;;;;;;0.90;0.70;;;30.70;95.30;;;;;;4963164;28;20436;-61
2022/07/14 10:00:08;;;;;;;0.63;0.63;;;31.20;94.80;;;;;;4962715;28;20432;-64
2022/07/14 10:02:38;;;;;;;0.70;0.70;;;31.60;94.60;;;;;;4957859;28;20437;-62
2022/07/14 10:05:08;;;;;;;0.60;0.60;;;31.60;94.70;;;;;;4961079;28;20479;-62
2022/07/14 10:07:43;;;;;;;0.70;0.70;;;31.80;94.10;;;;;;4945687;28;21040;-61
2022/07/14 10:10:13;;;;;;;0.47;0.47;;;31.90;93.70;;;;;;4982188;28;20441;-61
2022/07/14 10:12:42;;;;;;;0.70;0.70;;;32.30;93.90;;;;;;4955004;28;21105;-62
2022/07/14 10:15:12;;;;;;;0.70;0.70;;;32.40;94.00;;;;;;4954450;28;20519;-61
2022/07/14 10:17:41;;;;;;;0.68;0.68;;;32.30;93.90;;;;;;4959879;28;20491;-61
2022/07/14 10:20:11;;;;;;;0.60;0.60;;;32.30;94.00;;;;;;4954590;28;20535;-62
2022/07/14 10:22:39;;;;;;;0.70;0.70;;;32.10;94.00;;;;;;4954222;28;21193;-61
2022/07/14 10:25:09;;;;;;;0.70;0.70;;;32.10;93.30;;;;;;4960030;28;20431;-61
2022/07/14 10:27:42;;;;;;;0.60;0.60;;;32.30;93.70;;;;;;4954251;28;20471;-63
2022/07/14 10:30:11;;;;;;;0.80;0.80;;;32.40;93.50;;;;;;4952036;28;20543;-63
2022/07/14 10:32:52;;;;;;;0.70;0.70;;;32.90;93.60;;;;;;4959463;28;20489;-62
2022/07/14 10:35:31;;;;;;;0.90;0.90;;;33.00;93.00;;;;;;4962268;28;20446;-62
2022/07/14 10:38:30;;;;;;;0.68;0.68;;;32.40;93.00;;;;;;4952578;28;20817;-63
2022/07/14 10:41:34;;;;;;;0.60;0.60;;;32.00;93.80;;;;;;4952356;28;20989;-62
2022/07/14 10:44:15;;;;;;;0.73;0.73;;;31.80;94.10;;;;;;4955797;28;20494;-62
2022/07/14 10:46:46;;;;;;;0.60;0.60;;;32.10;94.70;;;;;;4958899;28;20451;-61
2022/07/14 10:49:20;;;;;;;0.60;0.60;;;32.60;93.40;;;;;;4950948;28;20436;-62
2022/07/14 10:51:54;;;;;;;0.70;0.70;;;32.50;93.40;;;;;;4958942;28;20452;-61
2022/07/14 10:54:26;;;;;;;0.57;0.57;;;31.90;93.30;;;;;;4961117;28;20826;-62
2022/07/14 10:57:19;;;;;;;0.50;0.50;;;32.50;94.60;;;;;;4952446;28;20442;-62
2022/07/14 10:59:47;;;;;;;0.70;0.70;;;33.10;93.50;;;;;;4959330;28;20780;-62
2022/07/14 11:02:14;;;;;;;0.80;0.80;;;33.40;92.50;;;;;;4961147;28;20447;-63
2022/07/14 11:04:58;;;;;;;0.70;0.70;;;33.00;92.80;;;;;;4968746;28;20491;-62
2022/07/14 11:07:47;;;;;;;0.80;0.80;;;32.70;92.90;;;;;;4960280;28;20476;-62
2022/07/14 11:10:20;;;;;;;0.50;0.50;;;32.30;93.00;;;;;;4970504;28;20443;-62
2022/07/14 11:13:05;;;;;;;0.60;0.60;;;32.30;93.60;;;;;;4966122;28;20436;-63
2022/07/14 11:15:54;;;;;;;0.70;0.70;;;32.70;93.40;;;;;;4955787;28;20950;-62
2022/07/14 11:18:26;;;;;;;0.70;0.70;;;33.00;93.10;;;;;;4955783;28;20444;-61
2022/07/14 11:21:13;;;;;;;0.68;0.68;;;33.40;93.10;;;;;;4959755;28;20477;-61
2022/07/14 11:23:49;;;;;;;0.70;0.70;;;33.60;92.40;;;;;;4952916;28;20567;-63
2022/07/14 11:26:41;;;;;;;0.60;0.60;;;33.30;92.70;;;;;;4975966;28;20459;-61
2022/07/14 11:29:15;;;;;;;0.93;0.70;;;33.70;92.50;;;;;;4952738;28;20448;-62
2022/07/14 11:31:50;;;;;;;0.60;0.60;;;34.20;91.90;;;;;;4963148;28;20539;-62
2022/07/14 11:37:15;;;;;;;0.60;0.60;;;33.70;91.90;;;;;;4955012;28;20434;-62
2022/07/14 11:40:39;;;;;;;0.80;0.80;;;33.60;92.50;;;;;;4957146;28;20420;-62
2022/07/14 11:43:27;;;;;;;0.57;0.57;;;33.70;92.50;;;;;;4963872;28;20434;-61
2022/07/14 11:46:03;;;;;;;0.52;0.52;;;34.20;92.50;;;;;;4998894;28;20470;-62
2022/07/14 11:48:39;;;;;;;0.70;0.70;;;34.20;91.80;;;;;;4960188;28;20523;-63
2022/07/14 11:51:09;;;;;;;0.55;0.55;;;33.90;91.80;;;;;;4962224;28;20465;-61
2022/07/14 11:53:38;;;;;;;0.60;0.60;;;33.30;92.20;;;;;;4955506;28;20458;-61
2022/07/14 11:56:07;;;;;;;0.60;0.60;;;32.80;92.40;;;;;;4953468;28;20951;-62
2022/07/14 11:58:35;;;;;;;0.70;0.70;;;32.70;92.80;;;;;;4952559;28;21144;-61
2022/07/14 12:01:03;;;;;;;0.60;0.60;;;32.80;92.70;;;;;;4959483;28;20452;-62
2022/07/14 12:03:30;;;;;;;0.63;0.63;;;32.70;92.50;;;;;;4949362;28;20529;-62
2022/07/14 12:05:59;;;;;;;0.90;0.90;;;32.80;92.50;;;;;;4961833;28;20922;-63
2022/07/14 12:08:32;;;;;;;0.60;0.60;;;32.80;92.60;;;;;;4955758;28;20986;-61
2022/07/14 12:11:11;;;;;;;0.60;0.60;;;33.20;92.20;;;;;;4975462;28;20511;-62
2022/07/14 12:13:53;;;;;;;0.70;0.70;;;32.80;92.10;;;;;;4989131;28;20571;-63
2022/07/14 12:16:22;;;;;;;0.90;0.90;;;32.30;92.50;;;;;;4960931;28;20450;-63
2022/07/14 12:18:53;;;;;;;0.70;0.70;;;31.90;92.70;;;;;;4960156;28;20440;-61
2022/07/14 12:21:34;;;;;;;0.60;0.60;;;31.50;93.00;;;;;;4962389;28;21101;-62
2022/07/14 12:24:02;;;;;;;0.57;0.57;;;31.40;93.60;;;;;;4961422;28;20436;-61
2022/07/14 12:26:31;;;;;;;0.50;0.50;;;31.40;92.90;;;;;;4959080;28;20494;-62
2022/07/14 12:29:01;;;;;;;0.60;0.60;;;31.50;93.30;;;;;;4969925;28;20441;-62
2022/07/14 12:31:28;;;;;;;0.50;0.50;;;31.90;92.60;;;;;;4952557;28;20564;-60
2022/07/14 12:33:59;;;;;;;0.60;0.60;;;32.00;92.30;;;;;;4963186;28;20440;-61
2022/07/14 12:36:30;;;;;;;0.70;0.70;;;31.80;92.40;;;;;;4962705;28;20444;-62
2022/07/14 12:38:59;;;;;;;0.67;0.67;;;32.20;91.50;;;;;;4952784;28;20436;-61
2022/07/14 12:41:27;;;;;;;0.50;0.50;;;32.80;90.80;;;;;;4956547;28;20844;-61
2022/07/14 12:43:56;;;;;;;0.60;0.60;;;32.80;87.00;;;;;;4952607;28;20897;-61
2022/07/14 12:46:24;;;;;;;0.50;0.50;;;32.80;87.30;;;;;;4956315;28;20441;-61
2022/07/14 12:48:52;;;;;;;0.60;0.60;;;32.90;86.70;;;;;;4959656;28;21645;-62
2022/07/14 12:51:23;;;;;;;0.60;0.60;;;33.20;85.80;;;;;;4959041;28;20440;-63
2022/07/14 12:54:15;;;;;;;0.50;0.50;;;33.10;85.70;;;;;;4950155;28;20448;-62
2022/07/14 12:57:00;;;;;;;0.47;0.47;;;32.80;87.00;;;;;;4959265;28;20446;-61
2022/07/14 12:59:33;;;;;;;0.52;0.52;;;32.80;86.30;;;;;;4953462;28;20472;-61
2022/07/14 13:02:08;;;;;;;0.40;0.40;;;32.80;86.10;;;;;;4960125;28;20438;-61
2022/07/14 13:04:45;;;;;;;0.30;0.30;;;33.00;86.80;;;;;;4955399;28;20443;-62
2022/07/14 13:07:24;;;;;;;0.50;0.50;;;33.30;85.70;;;;;;4955470;28;20464;-62
2022/07/14 13:10:06;;;;;;;0.50;0.50;;;33.70;85.60;;;;;;4952597;28;20492;-63
2022/07/14 13:12:34;;;;;;;0.32;0.32;;;33.80;85.70;;;;;;4961194;28;20452;-63
2022/07/14 13:15:08;;;;;;;0.40;0.40;;;34.10;84.80;;;;;;4957424;28;20490;-62